sensor_id;sensor_type;location;lat;lon;timestamp;pressure;altitude;pressure_sealevel;temperature
73265;BMP280;61493;51.008;14.088;2022-07-23T00:01:21;98055.56;;;17.62
73265;BMP280;61493;51.008;14.088;2022-07-23T00:03:46;98067.91;;;17.53
73265;BMP280;61493;51.008;14.088;2022-07-23T00:06:12;98054.09;;;17.61
73265;BMP280;61493;51.008;14.088;2022-07-23T00:08:37;98051.59;;;17.57
73265;BMP280;61493;51.008;14.088;2022-07-23T00:11:03;98056.78;;;17.61
73265;BMP280;61493;51.008;14.088;2022-07-23T00:13:28;98050.84;;;17.56
73265;BMP280;61493;51.008;14.088;2022-07-23T00:15:54;98056.88;;;17.51
73265;BMP280;61493;51.008;14.088;2022-07-23T00:18:20;98046.44;;;17.44
73265;BMP280;61493;51.008;14.088;2022-07-23T00:20:46;98046.09;;;17.37
73265;BMP280;61493;51.008;14.088;2022-07-23T00:23:11;98033.84;;;17.36
73265;BMP280;61493;51.008;14.088;2022-07-23T00:25:37;98035.50;;;17.48
73265;BMP280;61493;51.008;14.088;2022-07-23T00:28:02;98028.09;;;17.43
73265;BMP280;61493;51.008;14.088;2022-07-23T00:30:29;98021.72;;;17.40
73265;BMP280;61493;51.008;14.088;2022-07-23T00:32:56;98020.97;;;17.40
73265;BMP280;61493;51.008;14.088;2022-07-23T00:35:26;98014.38;;;17.41
73265;BMP280;61493;51.008;14.088;2022-07-23T00:37:53;98016.75;;;17.39
73265;BMP280;61493;51.008;14.088;2022-07-23T00:40:19;98014.44;;;17.32
73265;BMP280;61493;51.008;14.088;2022-07-23T00:42:44;98013.72;;;17.31
73265;BMP280;61493;51.008;14.088;2022-07-23T00:45:10;98020.75;;;17.29
73265;BMP280;61493;51.008;14.088;2022-07-23T00:47:36;98007.75;;;17.27
73265;BMP280;61493;51.008;14.088;2022-07-23T00:50:03;98004.78;;;17.25
73265;BMP280;61493;51.008;14.088;2022-07-23T00:52:29;98010.81;;;17.20
73265;BMP280;61493;51.008;14.088;2022-07-23T00:54:54;98007.13;;;17.17
73265;BMP280;61493;51.008;14.088;2022-07-23T00:57:20;98007.44;;;17.10
73265;BMP280;61493;51.008;14.088;2022-07-23T00:59:45;98001.88;;;17.14
73265;BMP280;61493;51.008;14.088;2022-07-23T01:02:11;98008.47;;;17.13
73265;BMP280;61493;51.008;14.088;2022-07-23T01:04:36;98012.38;;;17.12
73265;BMP280;61493;51.008;14.088;2022-07-23T01:07:01;98013.84;;;17.13
73265;BMP280;61493;51.008;14.088;2022-07-23T01:09:27;98008.19;;;17.11
73265;BMP280;61493;51.008;14.088;2022-07-23T01:11:54;98013.56;;;17.11
73265;BMP280;61493;51.008;14.088;2022-07-23T01:14:19;98008.19;;;17.11
73265;BMP280;61493;51.008;14.088;2022-07-23T01:16:47;98008.94;;;17.11
73265;BMP280;61493;51.008;14.088;2022-07-23T01:19:13;98014.13;;;17.15
73265;BMP280;61493;51.008;14.088;2022-07-23T01:21:42;98008.19;;;17.11
73265;BMP280;61493;51.008;14.088;2022-07-23T01:24:09;98011.06;;;17.07
73265;BMP280;61493;51.008;14.088;2022-07-23T01:26:35;98005.38;;;17.05
73265;BMP280;61493;51.008;14.088;2022-07-23T01:29:00;98006.16;;;17.06
73265;BMP280;61493;51.008;14.088;2022-07-23T01:31:26;97998.53;;;17.04
73265;BMP280;61493;51.008;14.088;2022-07-23T01:33:52;97986.91;;;16.98
73265;BMP280;61493;51.008;14.088;2022-07-23T01:36:17;97979.78;;;16.95
73265;BMP280;61493;51.008;14.088;2022-07-23T01:38:42;97974.22;;;16.99
73265;BMP280;61493;51.008;14.088;2022-07-23T01:41:08;97980.19;;;17.03
73265;BMP280;61493;51.008;14.088;2022-07-23T01:43:33;97965.72;;;17.00
73265;BMP280;61493;51.008;14.088;2022-07-23T01:45:58;97960.34;;;17.00
73265;BMP280;61493;51.008;14.088;2022-07-23T01:48:24;97951.81;;;17.02
73265;BMP280;61493;51.008;14.088;2022-07-23T01:50:49;97953.34;;;16.94
73265;BMP280;61493;51.008;14.088;2022-07-23T01:53:14;97946.97;;;16.91
73265;BMP280;61493;51.008;14.088;2022-07-23T01:55:40;97939.06;;;16.87
73265;BMP280;61493;51.008;14.088;2022-07-23T01:58:06;97931.63;;;16.82
73265;BMP280;61493;51.008;14.088;2022-07-23T02:00:31;97928.41;;;16.78
73265;BMP280;61493;51.008;14.088;2022-07-23T02:02:57;97931.72;;;16.73
73265;BMP280;61493;51.008;14.088;2022-07-23T02:05:24;97933.84;;;16.69
73265;BMP280;61493;51.008;14.088;2022-07-23T02:07:49;97935.78;;;16.69
73265;BMP280;61493;51.008;14.088;2022-07-23T02:10:14;97950.16;;;16.66
73265;BMP280;61493;51.008;14.088;2022-07-23T02:12:40;97938.63;;;16.65
73265;BMP280;61493;51.008;14.088;2022-07-23T02:15:09;97934.19;;;16.62
73265;BMP280;61493;51.008;14.088;2022-07-23T02:17:34;97936.31;;;16.58
73265;BMP280;61493;51.008;14.088;2022-07-23T02:19:59;97927.50;;;16.58
73265;BMP280;61493;51.008;14.088;2022-07-23T02:22:24;97924.16;;;16.72
73265;BMP280;61493;51.008;14.088;2022-07-23T02:24:50;97925.53;;;16.82
73265;BMP280;61493;51.008;14.088;2022-07-23T02:27:15;97932.06;;;16.90
73265;BMP280;61493;51.008;14.088;2022-07-23T02:29:40;97937.13;;;16.88
73265;BMP280;61493;51.008;14.088;2022-07-23T02:32:06;97932.81;;;16.91
73265;BMP280;61493;51.008;14.088;2022-07-23T02:34:31;97933.78;;;16.93
73265;BMP280;61493;51.008;14.088;2022-07-23T02:36:56;97931.84;;;16.94
73265;BMP280;61493;51.008;14.088;2022-07-23T02:39:21;97938.28;;;16.96
73265;BMP280;61493;51.008;14.088;2022-07-23T02:41:47;97936.97;;;16.92
73265;BMP280;61493;51.008;14.088;2022-07-23T02:44:12;97936.97;;;16.92
73265;BMP280;61493;51.008;14.088;2022-07-23T02:46:37;97929.38;;;16.90
73265;BMP280;61493;51.008;14.088;2022-07-23T02:49:02;97926.38;;;16.88
73265;BMP280;61493;51.008;14.088;2022-07-23T02:51:29;97921.47;;;16.86
73265;BMP280;61493;51.008;14.088;2022-07-23T02:53:55;97914.44;;;16.89
73265;BMP280;61493;51.008;14.088;2022-07-23T02:56:20;97917.41;;;16.91
73265;BMP280;61493;51.008;14.088;2022-07-23T02:58:46;97906.94;;;16.93
73265;BMP280;61493;51.008;14.088;2022-07-23T03:01:11;97904.97;;;16.94
73265;BMP280;61493;51.008;14.088;2022-07-23T03:03:36;97899.81;;;16.90
73265;BMP280;61493;51.008;14.088;2022-07-23T03:06:02;97906.03;;;16.96
73265;BMP280;61493;51.008;14.088;2022-07-23T03:08:27;97899.81;;;16.90
73265;BMP280;61493;51.008;14.088;2022-07-23T03:10:52;97890.91;;;16.84
73265;BMP280;61493;51.008;14.088;2022-07-23T03:13:18;97886.28;;;16.84
73265;BMP280;61493;51.008;14.088;2022-07-23T03:15:43;97894.44;;;16.90
73265;BMP280;61493;51.008;14.088;2022-07-23T03:18:08;97892.94;;;17.04
73265;BMP280;61493;51.008;14.088;2022-07-23T03:20:33;97895.81;;;16.85
73265;BMP280;61493;51.008;14.088;2022-07-23T03:22:59;97899.03;;;16.75
73265;BMP280;61493;51.008;14.088;2022-07-23T03:25:24;97890.66;;;16.97
73265;BMP280;61493;51.008;14.088;2022-07-23T03:27:49;97893.19;;;16.76
73265;BMP280;61493;51.008;14.088;2022-07-23T03:30:14;97896.81;;;16.73
73265;BMP280;61493;51.008;14.088;2022-07-23T03:32:40;97898.28;;;16.74
73265;BMP280;61493;51.008;14.088;2022-07-23T03:35:05;97892.16;;;16.74
73265;BMP280;61493;51.008;14.088;2022-07-23T03:37:31;97891.53;;;16.79
73265;BMP280;61493;51.008;14.088;2022-07-23T03:39:56;97890.78;;;16.78
73265;BMP280;61493;51.008;14.088;2022-07-23T03:42:21;97880.59;;;16.82
73265;BMP280;61493;51.008;14.088;2022-07-23T03:44:47;97880.25;;;16.89
73265;BMP280;61493;51.008;14.088;2022-07-23T03:47:12;97878.94;;;17.00
73265;BMP280;61493;51.008;14.088;2022-07-23T03:49:37;97868.75;;;17.04
73265;BMP280;61493;51.008;14.088;2022-07-23T03:52:03;97868.63;;;17.07
73265;BMP280;61493;51.008;14.088;2022-07-23T03:54:28;97866.28;;;17.15
73265;BMP280;61493;51.008;14.088;2022-07-23T03:56:53;97870.06;;;17.23
73265;BMP280;61493;51.008;14.088;2022-07-23T03:59:19;97867.75;;;17.16
73265;BMP280;61493;51.008;14.088;2022-07-23T04:01:44;97867.22;;;17.12
73265;BMP280;61493;51.008;14.088;2022-07-23T04:04:09;97866.47;;;17.11
73265;BMP280;61493;51.008;14.088;2022-07-23T04:06:35;97860.63;;;17.13
73265;BMP280;61493;51.008;14.088;2022-07-23T04:09:00;97858.31;;;17.20
73265;BMP280;61493;51.008;14.088;2022-07-23T04:11:26;97858.41;;;17.26
73265;BMP280;61493;51.008;14.088;2022-07-23T04:13:51;97862.75;;;17.23
73265;BMP280;61493;51.008;14.088;2022-07-23T04:16:16;97848.00;;;17.19
73265;BMP280;61493;51.008;14.088;2022-07-23T04:18:41;97841.44;;;17.20
73265;BMP280;61493;51.008;14.088;2022-07-23T04:21:07;97844.69;;;17.24
73265;BMP280;61493;51.008;14.088;2022-07-23T04:23:32;97842.81;;;17.30
73265;BMP280;61493;51.008;14.088;2022-07-23T04:25:57;97849.78;;;17.37
73265;BMP280;61493;51.008;14.088;2022-07-23T04:28:22;97854.66;;;17.38
73265;BMP280;61493;51.008;14.088;2022-07-23T04:30:48;97855.06;;;17.46
73265;BMP280;61493;51.008;14.088;2022-07-23T04:33:13;97850.94;;;17.50
73265;BMP280;61493;51.008;14.088;2022-07-23T04:35:38;97850.94;;;17.50
73265;BMP280;61493;51.008;14.088;2022-07-23T04:38:04;97851.13;;;17.62
73265;BMP280;61493;51.008;14.088;2022-07-23T04:40:29;97849.69;;;17.81
73265;BMP280;61493;51.008;14.088;2022-07-23T04:42:55;97852.00;;;18.08
73265;BMP280;61493;51.008;14.088;2022-07-23T04:45:20;97857.63;;;18.31
73265;BMP280;61493;51.008;14.088;2022-07-23T04:47:46;97851.41;;;18.65
73265;BMP280;61493;51.008;14.088;2022-07-23T04:50:11;97845.16;;;19.00
73265;BMP280;61493;51.008;14.088;2022-07-23T04:52:36;97847.25;;;19.21
73265;BMP280;61493;51.008;14.088;2022-07-23T04:55:02;97844.22;;;19.40
73265;BMP280;61493;51.008;14.088;2022-07-23T04:57:27;97858.31;;;19.60
73265;BMP280;61493;51.008;14.088;2022-07-23T04:59:53;97863.06;;;19.77
73265;BMP280;61493;51.008;14.088;2022-07-23T05:02:18;97884.13;;;19.73
73265;BMP280;61493;51.008;14.088;2022-07-23T05:04:43;97888.06;;;19.72
73265;BMP280;61493;51.008;14.088;2022-07-23T05:12:19;97879.25;;;19.34
73265;BMP280;61493;51.008;14.088;2022-07-23T05:14:44;97886.34;;;19.37
73265;BMP280;61493;51.008;14.088;2022-07-23T05:17:10;97884.66;;;19.34
73265;BMP280;61493;51.008;14.088;2022-07-23T05:19:35;97883.44;;;19.35
73265;BMP280;61493;51.008;14.088;2022-07-23T05:22:00;97876.56;;;19.34
73265;BMP280;61493;51.008;14.088;2022-07-23T05:24:26;97883.81;;;19.28
73265;BMP280;61493;51.008;14.088;2022-07-23T05:26:51;97886.22;;;19.20
73265;BMP280;61493;51.008;14.088;2022-07-23T05:29:16;97883.97;;;19.45
73265;BMP280;61493;51.008;14.088;2022-07-23T05:31:42;97870.50;;;19.50
73265;BMP280;61493;51.008;14.088;2022-07-23T05:34:07;97871.00;;;19.49
73265;BMP280;61493;51.008;14.088;2022-07-23T05:36:32;97879.97;;;19.72
73265;BMP280;61493;51.008;14.088;2022-07-23T05:38:58;97871.72;;;19.86
73265;BMP280;61493;51.008;14.088;2022-07-23T05:41:23;97878.72;;;20.10
73265;BMP280;61493;51.008;14.088;2022-07-23T05:43:49;97891.94;;;20.08
73265;BMP280;61493;51.008;14.088;2022-07-23T05:46:14;97886.75;;;19.93
73265;BMP280;61493;51.008;14.088;2022-07-23T05:48:39;97905.34;;;19.85
73265;BMP280;61493;51.008;14.088;2022-07-23T05:51:05;97910.69;;;19.74
73265;BMP280;61493;51.008;14.088;2022-07-23T05:53:32;97925.63;;;19.70
73265;BMP280;61493;51.008;14.088;2022-07-23T05:55:57;97921.44;;;19.69
73265;BMP280;61493;51.008;14.088;2022-07-23T05:58:22;97936.91;;;19.74
73265;BMP280;61493;51.008;14.088;2022-07-23T06:00:48;97940.75;;;19.61
73265;BMP280;61493;51.008;14.088;2022-07-23T06:03:14;97932.72;;;19.73
73265;BMP280;61493;51.008;14.088;2022-07-23T06:05:39;97927.94;;;19.56
73265;BMP280;61493;51.008;14.088;2022-07-23T06:08:04;97946.75;;;19.45
73265;BMP280;61493;51.008;14.088;2022-07-23T06:10:30;97950.53;;;19.53
73265;BMP280;61493;51.008;14.088;2022-07-23T06:12:55;97962.19;;;19.71
73265;BMP280;61493;51.008;14.088;2022-07-23T06:15:20;97967.31;;;19.69
73265;BMP280;61493;51.008;14.088;2022-07-23T06:17:46;97973.53;;;19.49
73265;BMP280;61493;51.008;14.088;2022-07-23T06:20:11;97970.03;;;19.43
73265;BMP280;61493;51.008;14.088;2022-07-23T06:22:37;97984.41;;;19.60
73265;BMP280;61493;51.008;14.088;2022-07-23T06:25:03;97996.97;;;19.37
73265;BMP280;61493;51.008;14.088;2022-07-23T06:27:28;98012.59;;;19.33
73265;BMP280;61493;51.008;14.088;2022-07-23T06:29:53;98012.38;;;19.31
73265;BMP280;61493;51.008;14.088;2022-07-23T06:32:19;98000.31;;;19.26
73265;BMP280;61493;51.008;14.088;2022-07-23T06:34:44;97994.38;;;19.48
73265;BMP280;61493;51.008;14.088;2022-07-23T06:37:12;97995.41;;;19.56
73265;BMP280;61493;51.008;14.088;2022-07-23T06:39:37;97993.09;;;19.70
73265;BMP280;61493;51.008;14.088;2022-07-23T06:42:03;97986.91;;;19.64
73265;BMP280;61493;51.008;14.088;2022-07-23T06:44:28;97976.97;;;19.81
73265;BMP280;61493;51.008;14.088;2022-07-23T06:46:53;97980.72;;;19.94
73265;BMP280;61493;51.008;14.088;2022-07-23T06:49:19;97981.63;;;19.80
73265;BMP280;61493;51.008;14.088;2022-07-23T06:51:44;97982.00;;;19.99
73265;BMP280;61493;51.008;14.088;2022-07-23T06:54:10;97983.59;;;19.80
73265;BMP280;61493;51.008;14.088;2022-07-23T06:56:35;97986.94;;;19.69
73265;BMP280;61493;51.008;14.088;2022-07-23T06:59:00;97989.66;;;19.43
73265;BMP280;61493;51.008;14.088;2022-07-23T07:01:32;97990.19;;;19.21
73265;BMP280;61493;51.008;14.088;2022-07-23T07:03:57;97980.19;;;19.27
73265;BMP280;61493;51.008;14.088;2022-07-23T07:06:22;97970.03;;;19.43
73265;BMP280;61493;51.008;14.088;2022-07-23T07:08:47;97972.88;;;19.59
73265;BMP280;61493;51.008;14.088;2022-07-23T07:11:13;97986.31;;;19.85
73265;BMP280;61493;51.008;14.088;2022-07-23T07:13:38;97993.78;;;20.02
73265;BMP280;61493;51.008;14.088;2022-07-23T07:16:04;97988.06;;;20.25
73265;BMP280;61493;51.008;14.088;2022-07-23T07:18:29;97976.59;;;20.47
73265;BMP280;61493;51.008;14.088;2022-07-23T07:20:56;97989.13;;;20.50
73265;BMP280;61493;51.008;14.088;2022-07-23T07:23:21;97991.09;;;20.50
73265;BMP280;61493;51.008;14.088;2022-07-23T07:25:47;97997.09;;;20.76
73265;BMP280;61493;51.008;14.088;2022-07-23T07:28:12;97991.53;;;21.02
73265;BMP280;61493;51.008;14.088;2022-07-23T07:30:38;98003.63;;;21.34
73265;BMP280;61493;51.008;14.088;2022-07-23T07:33:03;98007.06;;;21.46
73265;BMP280;61493;51.008;14.088;2022-07-23T07:35:29;98006.78;;;21.78
73265;BMP280;61493;51.008;14.088;2022-07-23T07:37:56;98004.75;;;22.12
73265;BMP280;61493;51.008;14.088;2022-07-23T07:40:21;98002.84;;;21.90
73265;BMP280;61493;51.008;14.088;2022-07-23T07:42:48;98007.78;;;21.86
73265;BMP280;61493;51.008;14.088;2022-07-23T07:45:14;98008.94;;;22.18
73265;BMP280;61493;51.008;14.088;2022-07-23T07:47:40;97997.50;;;22.48
73265;BMP280;61493;51.008;14.088;2022-07-23T07:50:06;97980.91;;;22.68
73265;BMP280;61493;51.008;14.088;2022-07-23T07:52:33;97986.63;;;23.00
73265;BMP280;61493;51.008;14.088;2022-07-23T07:54:58;97987.81;;;23.04
73265;BMP280;61493;51.008;14.088;2022-07-23T07:57:26;97996.53;;;22.45
73265;BMP280;61493;51.008;14.088;2022-07-23T07:59:52;97999.63;;;22.71
73265;BMP280;61493;51.008;14.088;2022-07-23T08:02:17;98007.03;;;22.71
73265;BMP280;61493;51.008;14.088;2022-07-23T08:04:42;98003.09;;;23.37
73265;BMP280;61493;51.008;14.088;2022-07-23T08:07:08;98001.19;;;24.67
73265;BMP280;61493;51.008;14.088;2022-07-23T08:09:36;98010.16;;;25.84
73265;BMP280;61493;51.008;14.088;2022-07-23T08:12:01;98009.00;;;27.28
73265;BMP280;61493;51.008;14.088;2022-07-23T08:14:27;98005.53;;;27.85
73265;BMP280;61493;51.008;14.088;2022-07-23T08:16:55;98007.03;;;26.87
73265;BMP280;61493;51.008;14.088;2022-07-23T08:19:20;98002.56;;;27.26
73265;BMP280;61493;51.008;14.088;2022-07-23T08:21:46;98002.69;;;27.13
73265;BMP280;61493;51.008;14.088;2022-07-23T08:24:11;97997.84;;;27.55
73265;BMP280;61493;51.008;14.088;2022-07-23T08:26:36;97996.63;;;28.96
73265;BMP280;61493;51.008;14.088;2022-07-23T08:29:02;97996.06;;;28.75
73265;BMP280;61493;51.008;14.088;2022-07-23T08:31:27;97989.78;;;27.77
73265;BMP280;61493;51.008;14.088;2022-07-23T08:33:52;97989.06;;;28.13
73265;BMP280;61493;51.008;14.088;2022-07-23T08:36:18;97987.28;;;29.92
73265;BMP280;61493;51.008;14.088;2022-07-23T08:38:43;97981.00;;;30.64
73265;BMP280;61493;51.008;14.088;2022-07-23T08:41:08;97990.06;;;31.16
73265;BMP280;61493;51.008;14.088;2022-07-23T08:43:34;97986.84;;;31.88
73265;BMP280;61493;51.008;14.088;2022-07-23T08:46:01;97988.66;;;31.25
73265;BMP280;61493;51.008;14.088;2022-07-23T08:48:30;97986.34;;;32.00
73265;BMP280;61493;51.008;14.088;2022-07-23T08:50:58;97985.91;;;33.24
73265;BMP280;61493;51.008;14.088;2022-07-23T08:53:24;97988.81;;;34.36
73265;BMP280;61493;51.008;14.088;2022-07-23T08:55:55;97991.66;;;35.44
73265;BMP280;61493;51.008;14.088;2022-07-23T08:58:21;97996.22;;;35.51
73265;BMP280;61493;51.008;14.088;2022-07-23T09:00:47;97994.13;;;36.08
73265;BMP280;61493;51.008;14.088;2022-07-23T09:03:18;97999.19;;;36.83
73265;BMP280;61493;51.008;14.088;2022-07-23T09:05:45;98005.47;;;35.88
73265;BMP280;61493;51.008;14.088;2022-07-23T09:08:11;98005.91;;;35.73
73265;BMP280;61493;51.008;14.088;2022-07-23T09:13:27;98017.50;;;36.16
73265;BMP280;61493;51.008;14.088;2022-07-23T09:15:55;98016.53;;;36.00
73265;BMP280;61493;51.008;14.088;2022-07-23T09:18:37;98014.88;;;33.83
73265;BMP280;61493;51.008;14.088;2022-07-23T09:21:24;98018.25;;;32.12
73265;BMP280;61493;51.008;14.088;2022-07-23T09:23:56;98017.06;;;31.27
73265;BMP280;61493;51.008;14.088;2022-07-23T09:28:59;98028.16;;;32.25
73265;BMP280;61493;51.008;14.088;2022-07-23T09:34:06;98019.72;;;31.35
73265;BMP280;61493;51.008;14.088;2022-07-23T09:36:32;98016.41;;;31.98
73265;BMP280;61493;51.008;14.088;2022-07-23T09:38:57;98007.91;;;33.82
73265;BMP280;61493;51.008;14.088;2022-07-23T09:41:23;98014.34;;;32.15
73265;BMP280;61493;51.008;14.088;2022-07-23T09:43:54;98012.59;;;31.66
73265;BMP280;61493;51.008;14.088;2022-07-23T09:46:22;98018.63;;;31.13
73265;BMP280;61493;51.008;14.088;2022-07-23T09:48:55;98009.09;;;30.97
73265;BMP280;61493;51.008;14.088;2022-07-23T09:51:23;98022.94;;;29.92
73265;BMP280;61493;51.008;14.088;2022-07-23T09:53:52;98018.78;;;30.24
73265;BMP280;61493;51.008;14.088;2022-07-23T09:56:20;98028.22;;;28.97
73265;BMP280;61493;51.008;14.088;2022-07-23T09:58:45;98014.25;;;28.27
73265;BMP280;61493;51.008;14.088;2022-07-23T10:01:13;98016.03;;;27.45
73265;BMP280;61493;51.008;14.088;2022-07-23T10:03:40;98021.91;;;26.86
73265;BMP280;61493;51.008;14.088;2022-07-23T10:06:08;98024.78;;;27.02
73265;BMP280;61493;51.008;14.088;2022-07-23T10:08:39;98040.91;;;26.58
73265;BMP280;61493;51.008;14.088;2022-07-23T10:11:06;98039.66;;;26.46
73265;BMP280;61493;51.008;14.088;2022-07-23T10:13:31;98037.31;;;26.63
73265;BMP280;61493;51.008;14.088;2022-07-23T10:16:20;98034.94;;;26.59
73265;BMP280;61493;51.008;14.088;2022-07-23T10:18:47;98040.41;;;26.46
73265;BMP280;61493;51.008;14.088;2022-07-23T10:21:18;98032.63;;;26.84
73265;BMP280;61493;51.008;14.088;2022-07-23T10:24:16;98039.53;;;26.85
73265;BMP280;61493;51.008;14.088;2022-07-23T10:33:05;98041.16;;;30.12
73265;BMP280;61493;51.008;14.088;2022-07-23T10:41:12;98037.78;;;32.89
73265;BMP280;61493;51.008;14.088;2022-07-23T10:43:38;98042.94;;;33.31
73265;BMP280;61493;51.008;14.088;2022-07-23T10:46:24;98042.72;;;34.68
73265;BMP280;61493;51.008;14.088;2022-07-23T10:49:28;98050.31;;;33.67
73265;BMP280;61493;51.008;14.088;2022-07-23T10:54:38;98057.78;;;30.96
73265;BMP280;61493;51.008;14.088;2022-07-23T10:57:11;98056.25;;;29.81
73265;BMP280;61493;51.008;14.088;2022-07-23T11:02:33;98046.50;;;30.68
73265;BMP280;61493;51.008;14.088;2022-07-23T11:05:00;98057.00;;;32.60
73265;BMP280;61493;51.008;14.088;2022-07-23T11:07:26;98054.25;;;33.16
73265;BMP280;61493;51.008;14.088;2022-07-23T11:09:52;98050.19;;;32.61
73265;BMP280;61493;51.008;14.088;2022-07-23T11:15:15;98047.50;;;33.86
73265;BMP280;61493;51.008;14.088;2022-07-23T11:20:13;98058.19;;;34.82
73265;BMP280;61493;51.008;14.088;2022-07-23T11:22:47;98055.38;;;34.92
73265;BMP280;61493;51.008;14.088;2022-07-23T11:25:28;98058.66;;;34.79
73265;BMP280;61493;51.008;14.088;2022-07-23T11:27:55;98044.06;;;33.09
73265;BMP280;61493;51.008;14.088;2022-07-23T11:33:37;98046.84;;;33.38
73265;BMP280;61493;51.008;14.088;2022-07-23T11:35:40;98054.69;;;33.51
73265;BMP280;61493;51.008;14.088;2022-07-23T11:38:32;98054.31;;;31.21
73265;BMP280;61493;51.008;14.088;2022-07-23T11:40:57;98055.81;;;30.97
73265;BMP280;61493;51.008;14.088;2022-07-23T11:43:23;98061.13;;;31.37
73265;BMP280;61493;51.008;14.088;2022-07-23T11:45:51;98051.41;;;31.70
73265;BMP280;61493;51.008;14.088;2022-07-23T11:48:22;98061.19;;;31.64
73265;BMP280;61493;51.008;14.088;2022-07-23T11:50:49;98057.47;;;31.34
73265;BMP280;61493;51.008;14.088;2022-07-23T11:53:41;98054.31;;;30.71
73265;BMP280;61493;51.008;14.088;2022-07-23T11:56:08;98054.28;;;29.59
73265;BMP280;61493;51.008;14.088;2022-07-23T11:58:35;98065.25;;;29.51
73265;BMP280;61493;51.008;14.088;2022-07-23T12:01:00;98063.78;;;29.73
73265;BMP280;61493;51.008;14.088;2022-07-23T12:03:26;98058.88;;;28.14
73265;BMP280;61493;51.008;14.088;2022-07-23T12:05:56;98048.31;;;28.18
73265;BMP280;61493;51.008;14.088;2022-07-23T12:08:21;98039.16;;;28.08
73265;BMP280;61493;51.008;14.088;2022-07-23T12:10:47;98045.56;;;29.22
73265;BMP280;61493;51.008;14.088;2022-07-23T12:13:17;98039.53;;;29.94
73265;BMP280;61493;51.008;14.088;2022-07-23T12:15:46;98037.16;;;29.98
73265;BMP280;61493;51.008;14.088;2022-07-23T12:18:14;98037.75;;;29.26
73265;BMP280;61493;51.008;14.088;2022-07-23T12:21:03;98044.31;;;29.23
73265;BMP280;61493;51.008;14.088;2022-07-23T12:23:28;98042.06;;;29.52
73265;BMP280;61493;51.008;14.088;2022-07-23T12:25:54;98040.19;;;29.70
73265;BMP280;61493;51.008;14.088;2022-07-23T12:28:22;98047.03;;;30.01
73265;BMP280;61493;51.008;14.088;2022-07-23T12:30:53;98043.72;;;29.48
73265;BMP280;61493;51.008;14.088;2022-07-23T12:33:29;98053.94;;;29.47
73265;BMP280;61493;51.008;14.088;2022-07-23T12:35:57;98058.59;;;28.40
73265;BMP280;61493;51.008;14.088;2022-07-23T12:38:28;98056.41;;;28.31
73265;BMP280;61493;51.008;14.088;2022-07-23T12:40:58;98061.72;;;28.52
73265;BMP280;61493;51.008;14.088;2022-07-23T12:43:27;98059.19;;;28.10
73265;BMP280;61493;51.008;14.088;2022-07-23T12:46:04;98067.31;;;27.38
73265;BMP280;61493;51.008;14.088;2022-07-23T12:48:38;98067.59;;;27.27
73265;BMP280;61493;51.008;14.088;2022-07-23T12:51:15;98069.31;;;26.76
73265;BMP280;61493;51.008;14.088;2022-07-23T12:53:41;98074.75;;;26.42
73265;BMP280;61493;51.008;14.088;2022-07-23T12:56:10;98083.84;;;26.44
73265;BMP280;61493;51.008;14.088;2022-07-23T12:58:41;98091.75;;;26.08
73265;BMP280;61493;51.008;14.088;2022-07-23T13:01:07;98094.88;;;25.99
73265;BMP280;61493;51.008;14.088;2022-07-23T13:03:40;98099.69;;;26.06
73265;BMP280;61493;51.008;14.088;2022-07-23T13:06:08;98100.75;;;26.16
73265;BMP280;61493;51.008;14.088;2022-07-23T13:08:36;98100.84;;;25.85
73265;BMP280;61493;51.008;14.088;2022-07-23T13:11:03;98104.28;;;25.72
73265;BMP280;61493;51.008;14.088;2022-07-23T13:13:31;98105.50;;;25.45
73265;BMP280;61493;51.008;14.088;2022-07-23T13:15:57;98108.81;;;25.19
73265;BMP280;61493;51.008;14.088;2022-07-23T13:18:23;98110.13;;;25.31
73265;BMP280;61493;51.008;14.088;2022-07-23T13:20:49;98102.19;;;25.78
73265;BMP280;61493;51.008;14.088;2022-07-23T13:23:15;98114.78;;;26.60
73265;BMP280;61493;51.008;14.088;2022-07-23T13:25:41;98113.38;;;26.80
73265;BMP280;61493;51.008;14.088;2022-07-23T13:28:07;98111.09;;;26.71
73265;BMP280;61493;51.008;14.088;2022-07-23T13:30:32;98112.81;;;27.15
73265;BMP280;61493;51.008;14.088;2022-07-23T13:32:58;98111.75;;;27.60
73265;BMP280;61493;51.008;14.088;2022-07-23T13:35:24;98108.88;;;27.65
73265;BMP280;61493;51.008;14.088;2022-07-23T13:37:49;98105.75;;;27.61
73265;BMP280;61493;51.008;14.088;2022-07-23T13:40:17;98103.34;;;27.79
73265;BMP280;61493;51.008;14.088;2022-07-23T13:42:43;98102.09;;;27.87
73265;BMP280;61493;51.008;14.088;2022-07-23T13:45:08;98107.97;;;27.91
73265;BMP280;61493;51.008;14.088;2022-07-23T13:47:34;98105.72;;;27.82
73265;BMP280;61493;51.008;14.088;2022-07-23T13:49:59;98102.75;;;27.52
73265;BMP280;61493;51.008;14.088;2022-07-23T13:52:24;98102.91;;;28.31
73265;BMP280;61493;51.008;14.088;2022-07-23T13:54:50;98091.09;;;27.51
73265;BMP280;61493;51.008;14.088;2022-07-23T13:57:15;98097.63;;;27.48
73265;BMP280;61493;51.008;14.088;2022-07-23T13:59:41;98101.03;;;27.20
73265;BMP280;61493;51.008;14.088;2022-07-23T14:02:06;98109.03;;;27.39
73265;BMP280;61493;51.008;14.088;2022-07-23T14:04:32;98108.28;;;27.59
73265;BMP280;61493;51.008;14.088;2022-07-23T14:06:58;98099.72;;;27.55
73265;BMP280;61493;51.008;14.088;2022-07-23T14:09:23;98089.19;;;27.38
73265;BMP280;61493;51.008;14.088;2022-07-23T14:11:49;98101.75;;;27.42
73265;BMP280;61493;51.008;14.088;2022-07-23T14:14:16;98095.38;;;27.39
73265;BMP280;61493;51.008;14.088;2022-07-23T14:16:41;98098.91;;;27.47
73265;BMP280;61493;51.008;14.088;2022-07-23T14:19:06;98092.97;;;27.15
73265;BMP280;61493;51.008;14.088;2022-07-23T14:21:32;98103.81;;;27.07
73265;BMP280;61493;51.008;14.088;2022-07-23T14:23:57;98100.13;;;26.37
73265;BMP280;61493;51.008;14.088;2022-07-23T14:26:23;98103.25;;;26.54
73265;BMP280;61493;51.008;14.088;2022-07-23T14:28:48;98109.28;;;26.73
73265;BMP280;61493;51.008;14.088;2022-07-23T14:31:14;98108.47;;;26.52
73265;BMP280;61493;51.008;14.088;2022-07-23T14:33:39;98113.53;;;26.61